createdAt,value
2017-09-05T00:02:10.957Z,14
2017-09-05T00:12:10.988Z,15
2017-09-05T00:22:11.016Z,15
2017-09-05T00:32:10.922Z,15
2017-09-05T00:42:10.895Z,16
2017-09-05T00:52:10.994Z,16
2017-09-05T01:02:10.930Z,18
2017-09-05T01:12:10.998Z,17
2017-09-05T01:22:10.963Z,17
2017-09-05T01:32:10.958Z,16
2017-09-05T01:42:10.982Z,18
2017-09-05T01:52:10.886Z,15
2017-09-05T02:02:10.892Z,15
2017-09-05T02:12:11.056Z,14
2017-09-05T02:22:11.274Z,15
2017-09-05T02:32:10.909Z,17
2017-09-05T02:42:10.958Z,17
2017-09-05T02:52:10.870Z,19
2017-09-05T03:02:11.053Z,19
2017-09-05T03:12:10.914Z,20
2017-09-05T03:22:10.920Z,17
2017-09-05T03:32:10.984Z,17
2017-09-05T03:42:10.965Z,18
2017-09-05T03:52:11.019Z,19
2017-09-05T04:02:10.955Z,18
2017-09-05T04:12:10.965Z,18
2017-09-05T04:22:10.983Z,18
2017-09-05T04:32:10.924Z,18
2017-09-05T04:42:10.994Z,17
2017-09-05T04:52:10.987Z,19
2017-09-05T05:02:10.928Z,20
2017-09-05T05:12:10.989Z,19
2017-09-05T05:22:10.979Z,17
2017-09-05T05:32:10.912Z,17
2017-09-05T05:42:10.984Z,16
2017-09-05T05:52:10.955Z,17
2017-09-05T06:02:11.008Z,17
2017-09-05T06:12:10.937Z,16
2017-09-05T06:22:10.953Z,15
2017-09-05T06:32:10.944Z,15
2017-09-05T06:42:10.915Z,14
2017-09-05T06:52:11.008Z,16
2017-09-05T07:02:10.934Z,15
2017-09-05T07:12:10.960Z,16
2017-09-05T07:22:10.998Z,15
2017-09-05T07:32:10.957Z,13
2017-09-05T07:42:10.920Z,14
2017-09-05T07:52:10.993Z,13
2017-09-05T08:02:11.011Z,14
2017-09-05T08:12:11.019Z,13
2017-09-05T08:22:10.974Z,14
2017-09-05T08:32:10.936Z,13
2017-09-05T08:42:11.161Z,13
2017-09-05T08:52:10.984Z,12
2017-09-05T09:02:10.987Z,12
2017-09-05T09:12:10.998Z,12
2017-09-05T09:22:11.081Z,10
2017-09-05T09:32:11.045Z,9
2017-09-05T09:42:10.985Z,10
2017-09-05T09:52:10.959Z,9
2017-09-05T10:02:10.962Z,9
2017-09-05T10:12:10.934Z,8
2017-09-05T10:22:10.965Z,6
2017-09-05T10:32:10.997Z,6
2017-09-05T10:42:10.944Z,6
2017-09-05T10:52:10.934Z,6
2017-09-05T11:02:10.963Z,5
2017-09-05T11:12:10.942Z,5
2017-09-05T11:22:11.011Z,5
2017-09-05T11:32:10.968Z,5
2017-09-05T11:42:10.980Z,4
2017-09-05T11:52:10.963Z,4
2017-09-05T12:02:10.926Z,4
2017-09-05T12:12:10.979Z,4
2017-09-05T12:22:11.174Z,4
2017-09-05T12:32:11.613Z,4
2017-09-05T12:42:11.246Z,5
2017-09-05T12:52:11.663Z,4
2017-09-05T13:02:11.043Z,5
2017-09-05T13:12:10.972Z,5
2017-09-05T13:22:10.964Z,4
2017-09-05T13:32:11.013Z,5
2017-09-05T13:42:11.036Z,4
2017-09-05T13:52:11.343Z,6
2017-09-05T14:02:11.106Z,5
2017-09-05T14:12:11.169Z,5
2017-09-05T14:22:11.219Z,5
2017-09-05T14:32:11.195Z,5
2017-09-05T14:42:11.081Z,4
2017-09-05T14:52:11.115Z,5
2017-09-05T15:02:11.014Z,5
2017-09-05T15:12:11.153Z,6
2017-09-05T15:22:11.089Z,5
2017-09-05T15:32:11.568Z,7
2017-09-05T15:42:11.134Z,4
2017-09-05T15:52:11.188Z,4
2017-09-05T16:02:11.322Z,4
2017-09-05T16:12:11.106Z,3
2017-09-05T16:22:11.171Z,3
2017-09-05T16:32:11.221Z,4
2017-09-05T16:42:11.102Z,4
2017-09-05T16:52:11.540Z,4
2017-09-05T17:02:11.084Z,4
2017-09-05T17:12:11.157Z,4
2017-09-05T17:22:11.108Z,5
2017-09-05T17:32:11.033Z,4
2017-09-05T17:42:11.144Z,4
2017-09-05T17:52:11.166Z,4
2017-09-05T18:02:11.208Z,3
2017-09-05T18:12:11.183Z,4
2017-09-05T18:22:11.843Z,4
2017-09-05T18:32:11.437Z,4
2017-09-05T18:42:13.339Z,4
2017-09-05T18:52:13.382Z,4
2017-09-05T19:02:14.180Z,4
2017-09-05T19:12:12.636Z,4
2017-09-05T19:22:11.176Z,7
2017-09-05T19:32:11.151Z,5
2017-09-05T19:42:11.106Z,4
2017-09-05T19:52:29.050Z,5
2017-09-05T20:02:31.865Z,5
2017-09-05T20:12:13.567Z,5
2017-09-05T20:22:29.319Z,5
2017-09-05T20:32:30.278Z,6
2017-09-05T20:42:28.590Z,7
2017-09-05T20:52:11.118Z,7
2017-09-05T21:02:11.250Z,6
2017-09-05T21:12:11.143Z,6
2017-09-05T21:22:11.175Z,6
2017-09-05T21:32:11.112Z,6
2017-09-05T21:42:11.106Z,6
2017-09-05T21:52:11.202Z,6
2017-09-05T22:02:11.121Z,6
2017-09-05T22:12:11.167Z,7
2017-09-05T22:22:11.185Z,9
2017-09-05T22:32:11.098Z,12
2017-09-05T22:42:11.184Z,10
2017-09-05T22:52:11.115Z,7
2017-09-05T23:02:11.115Z,5
2017-09-05T23:12:11.114Z,6
2017-09-05T23:22:11.112Z,6
2017-09-05T23:32:11.176Z,5
2017-09-05T23:42:11.117Z,6
2017-09-05T23:52:11.082Z,6
